createdAt,value
2018-04-17T00:00:56.186Z,78.32
2018-04-17T00:04:19.178Z,77.83
2018-04-17T00:07:42.169Z,77.85
2018-04-17T00:11:05.090Z,78.69
2018-04-17T00:14:28.074Z,78.98
2018-04-17T00:17:51.032Z,79.30
2018-04-17T00:21:14.705Z,80.43
2018-04-17T00:24:37.641Z,79.43
2018-04-17T00:28:00.571Z,79.28
2018-04-17T00:31:23.552Z,79.64
2018-04-17T00:34:46.612Z,79.56
2018-04-17T00:38:09.539Z,79.60
2018-04-17T00:41:32.674Z,80.11
2018-04-17T00:44:55.595Z,79.73
2018-04-17T00:48:18.568Z,81.32
2018-04-17T00:51:41.544Z,81.59
2018-04-17T00:55:05.217Z,81.99
2018-04-17T00:58:28.171Z,81.67
2018-04-17T01:01:51.144Z,81.44
2018-04-17T01:05:14.065Z,81.81
2018-04-17T01:08:36.973Z,82.01
2018-04-17T01:11:59.905Z,81.47
2018-04-17T01:15:22.854Z,81.80
2018-04-17T01:18:46.597Z,83.44
2018-04-17T01:22:09.531Z,83.45
2018-04-17T01:25:32.460Z,83.81
2018-04-17T01:28:55.385Z,83.66
2018-04-17T01:32:18.305Z,83.61
2018-04-17T01:35:41.213Z,83.24
2018-04-17T01:39:04.108Z,83.98
2018-04-17T01:42:27.797Z,83.50
2018-04-17T01:45:50.706Z,82.64
2018-04-17T01:49:13.645Z,82.49
2018-04-17T01:52:36.639Z,82.68
2018-04-17T01:55:59.553Z,83.39
2018-04-17T01:59:22.457Z,83.63
2018-04-17T02:02:45.535Z,83.47
2018-04-17T02:06:08.605Z,84.04
2018-04-17T02:09:32.502Z,84.28
2018-04-17T02:12:56.226Z,84.64
2018-04-17T02:16:19.183Z,84.45
2018-04-17T02:19:42.126Z,84.07
2018-04-17T02:23:06.543Z,83.25
2018-04-17T02:26:29.498Z,83.13
2018-04-17T02:29:53.191Z,83.31
2018-04-17T02:33:16.114Z,82.87
2018-04-17T02:36:39.040Z,82.71
2018-04-17T02:40:01.961Z,82.74
2018-04-17T02:43:24.888Z,82.69
2018-04-17T02:46:47.878Z,81.63
2018-04-17T02:50:10.856Z,81.92
2018-04-17T02:53:33.780Z,82.48
2018-04-17T02:56:56.743Z,82.01
2018-04-17T03:00:20.422Z,82.53
2018-04-17T03:03:43.487Z,83.07
2018-04-17T03:07:06.440Z,82.95
2018-04-17T03:10:30.153Z,83.79
2018-04-17T03:13:53.852Z,82.73
2018-04-17T03:17:16.773Z,83.02
2018-04-17T03:20:39.687Z,83.37
2018-04-17T03:24:02.624Z,82.56
2018-04-17T03:27:25.537Z,83.10
2018-04-17T03:30:48.480Z,83.10
2018-04-17T03:34:12.966Z,82.55
2018-04-17T03:37:35.932Z,82.81
2018-04-17T03:40:59.621Z,83.12
2018-04-17T03:44:22.540Z,83.31
2018-04-17T03:47:45.526Z,82.95
2018-04-17T03:51:09.525Z,83.00
2018-04-17T03:54:32.471Z,81.80
2018-04-17T03:57:55.383Z,81.83
2018-04-17T04:01:18.327Z,82.21
2018-04-17T04:04:42.052Z,82.34
2018-04-17T04:08:05.753Z,82.64
2018-04-17T04:11:28.738Z,83.06
2018-04-17T04:14:51.711Z,83.26
2018-04-17T04:18:26.516Z,82.75
2018-04-17T04:22:01.431Z,82.83
2018-04-17T04:25:36.769Z,82.24
2018-04-17T04:28:59.720Z,82.45
2018-04-17T04:32:23.424Z,82.20
2018-04-17T04:35:46.454Z,82.15
2018-04-17T04:39:09.413Z,83.97
2018-04-17T04:42:32.415Z,83.97
2018-04-17T04:45:56.117Z,83.22
2018-04-17T04:49:20.576Z,83.75
2018-04-17T04:52:43.632Z,83.37
2018-04-17T04:56:06.556Z,83.27
2018-04-17T04:59:29.537Z,84.86
2018-04-17T05:02:52.479Z,84.35
2018-04-17T05:06:15.457Z,83.66
2018-04-17T05:09:39.465Z,82.29
2018-04-17T05:13:02.396Z,83.80
2018-04-17T05:16:25.312Z,83.73
2018-04-17T05:19:48.325Z,82.62
2018-04-17T05:23:11.941Z,82.85
2018-04-17T05:26:34.778Z,81.01
2018-04-17T05:29:57.644Z,83.11
2018-04-17T05:33:20.486Z,80.61
2018-04-17T05:36:43.341Z,81.63
2018-04-17T05:40:06.405Z,82.77
2018-04-17T05:43:29.988Z,83.30
2018-04-17T05:46:53.890Z,82.04
2018-04-17T05:50:16.818Z,82.71
2018-04-17T05:53:39.686Z,82.35
2018-04-17T05:57:02.590Z,82.56
2018-04-17T06:00:25.448Z,81.42
2018-04-17T06:03:48.331Z,82.23
2018-04-17T06:07:13.250Z,81.50
2018-04-17T06:10:36.121Z,81.77
2018-04-17T06:13:59.025Z,79.14
2018-04-17T06:17:21.909Z,79.93
2018-04-17T06:20:45.559Z,79.65
2018-04-17T06:24:09.220Z,81.28
2018-04-17T06:27:32.125Z,79.37
2018-04-17T06:30:55.811Z,80.55
2018-04-17T06:34:18.758Z,80.25
2018-04-17T06:37:42.462Z,79.70
2018-04-17T06:41:05.316Z,80.59
2018-04-17T06:44:28.247Z,81.25
2018-04-17T06:47:51.877Z,80.48
2018-04-17T06:51:14.806Z,79.04
2018-04-17T06:54:37.738Z,78.39
2018-04-17T06:58:01.393Z,78.59
2018-04-17T07:01:25.028Z,79.56
2018-04-17T07:04:47.922Z,79.96
2018-04-17T07:08:10.853Z,80.46
2018-04-17T07:11:33.695Z,78.73
2018-04-17T07:14:56.557Z,79.04
2018-04-17T07:18:19.471Z,78.41
2018-04-17T07:21:42.338Z,77.28
2018-04-17T07:25:05.975Z,77.49
2018-04-17T07:28:28.979Z,78.77
2018-04-17T07:31:52.743Z,78.97
2018-04-17T07:35:15.601Z,78.34
2018-04-17T07:38:38.459Z,78.24
2018-04-17T07:42:01.351Z,77.84
2018-04-17T07:45:24.211Z,76.81
2018-04-17T07:48:49.928Z,77.61
2018-04-17T07:52:13.583Z,78.16
2018-04-17T07:55:37.410Z,77.66
2018-04-17T07:59:00.114Z,78.00
2018-04-17T08:02:22.957Z,77.67
2018-04-17T08:05:45.817Z,77.23
2018-04-17T08:09:08.684Z,78.23
2018-04-17T08:12:32.308Z,76.15
2018-04-17T08:15:55.150Z,76.97
2018-04-17T08:19:17.993Z,75.29
2018-04-17T08:22:40.867Z,75.80
2018-04-17T08:26:04.568Z,74.91
2018-04-17T08:29:27.428Z,75.40
2018-04-17T08:32:50.241Z,74.23
2018-04-17T08:36:13.168Z,73.42
2018-04-17T08:39:36.051Z,72.52
2018-04-17T08:42:58.913Z,71.91
2018-04-17T08:46:22.534Z,69.33
2018-04-17T08:49:45.392Z,70.50
2018-04-17T08:53:08.234Z,72.22
2018-04-17T08:56:40.572Z,70.66
2018-04-17T09:00:03.716Z,71.48
2018-04-17T09:03:26.608Z,70.96
2018-04-17T09:06:50.233Z,69.67
2018-04-17T09:10:13.113Z,70.06
2018-04-17T09:13:36.850Z,69.01
2018-04-17T09:16:59.732Z,66.72
2018-04-17T09:20:22.564Z,64.86
2018-04-17T09:23:48.208Z,65.42
2018-04-17T09:27:11.959Z,65.50
2018-04-17T09:30:34.893Z,65.02
2018-04-17T09:33:57.757Z,63.87
2018-04-17T09:37:20.762Z,63.44
2018-04-17T09:40:44.435Z,62.43
2018-04-17T09:44:07.305Z,61.14
2018-04-17T09:47:31.033Z,60.13
2018-04-17T09:50:54.202Z,59.70
2018-04-17T09:54:17.819Z,58.84
2018-04-17T09:57:40.656Z,59.96
2018-04-17T10:01:03.508Z,59.70
2018-04-17T10:04:26.373Z,58.23
2018-04-17T10:07:49.340Z,57.30
2018-04-17T10:11:12.350Z,57.88
2018-04-17T10:14:35.211Z,58.07
2018-04-17T10:17:58.487Z,56.67
2018-04-17T10:21:21.316Z,57.69
2018-04-17T10:24:44.158Z,56.31
2018-04-17T10:28:07.031Z,56.12
2018-04-17T10:31:30.044Z,54.96
2018-04-17T10:34:53.644Z,55.72
2018-04-17T10:38:16.520Z,55.02
2018-04-17T10:41:39.428Z,54.53
2018-04-17T10:45:02.329Z,51.34
2018-04-17T10:48:25.192Z,48.81
2018-04-17T10:51:48.041Z,47.30
2018-04-17T10:55:10.906Z,48.22
2018-04-17T10:58:33.822Z,47.92
2018-04-17T11:01:56.744Z,47.18
2018-04-17T11:05:19.663Z,46.74
2018-04-17T11:08:42.614Z,46.71
2018-04-17T11:12:06.225Z,47.07
2018-04-17T11:15:29.087Z,47.01
2018-04-17T11:18:51.987Z,46.32
2018-04-17T11:22:14.965Z,46.52
2018-04-17T11:25:37.850Z,46.17
2018-04-17T11:29:00.827Z,45.23
2018-04-17T11:32:24.389Z,44.11
2018-04-17T11:35:47.269Z,41.90
2018-04-17T11:39:10.167Z,41.05
2018-04-17T11:42:33.024Z,39.38
2018-04-17T11:45:56.009Z,38.63
2018-04-17T11:49:18.852Z,38.54
2018-04-17T11:52:41.749Z,40.92
2018-04-17T11:56:05.362Z,39.11
2018-04-17T11:59:28.206Z,38.15
2018-04-17T12:02:51.052Z,37.99
2018-04-17T12:06:13.931Z,38.75
2018-04-17T12:09:37.561Z,37.72
2018-04-17T12:13:00.410Z,36.12
2018-04-17T12:16:23.322Z,33.87
2018-04-17T12:19:46.615Z,33.85
2018-04-17T12:23:09.471Z,34.21
2018-04-17T12:26:32.380Z,32.44
2018-04-17T12:29:55.934Z,31.40
2018-04-17T12:33:18.861Z,30.55
2018-04-17T12:36:41.706Z,30.24
2018-04-17T12:40:04.722Z,30.57
2018-04-17T12:43:28.908Z,29.53
2018-04-17T12:46:52.841Z,28.68
2018-04-17T12:50:16.462Z,29.43
2018-04-17T12:53:39.386Z,28.67
2018-04-17T12:57:02.296Z,29.50
2018-04-17T13:00:25.211Z,29.40
2018-04-17T13:03:48.065Z,29.20
2018-04-17T13:07:10.902Z,29.08
2018-04-17T13:10:33.764Z,28.24
2018-04-17T13:13:56.675Z,28.65
2018-04-17T13:17:19.521Z,28.11
2018-04-17T13:20:42.795Z,27.94
2018-04-17T13:24:05.636Z,27.95
2018-04-17T13:27:28.511Z,27.94
2018-04-17T13:30:52.386Z,27.63
2018-04-17T13:34:15.209Z,27.99
2018-04-17T13:37:38.032Z,28.36
2018-04-17T13:41:01.662Z,28.06
2018-04-17T13:44:24.566Z,28.05
2018-04-17T13:47:47.497Z,28.14
2018-04-17T13:51:10.254Z,26.60
2018-04-17T13:54:33.253Z,26.59
2018-04-17T13:57:56.098Z,26.55
2018-04-17T14:01:19.003Z,24.70
2018-04-17T14:04:42.043Z,25.20
2018-04-17T14:08:06.386Z,25.09
2018-04-17T14:11:29.273Z,25.62
2018-04-17T14:14:52.890Z,28.37
2018-04-17T14:18:15.737Z,27.54
2018-04-17T14:21:38.580Z,27.08
2018-04-17T14:25:01.528Z,26.91
2018-04-17T14:28:24.422Z,26.71
2018-04-17T14:31:47.337Z,27.02
2018-04-17T14:35:10.222Z,26.41
2018-04-17T14:38:33.866Z,26.91
2018-04-17T14:41:57.510Z,27.88
2018-04-17T14:45:21.871Z,27.80
2018-04-17T14:48:44.853Z,26.79
2018-04-17T14:52:07.716Z,26.37
2018-04-17T14:55:30.564Z,26.67
2018-04-17T14:58:53.554Z,26.62
2018-04-17T15:02:16.498Z,25.11
2018-04-17T15:05:40.120Z,24.83
2018-04-17T15:09:03.188Z,24.76
2018-04-17T15:12:26.034Z,24.92
2018-04-17T15:15:48.981Z,24.93
2018-04-17T15:19:12.617Z,24.67
2018-04-17T15:22:35.512Z,23.89
2018-04-17T15:25:58.392Z,23.20
2018-04-17T15:29:22.805Z,23.58
2018-04-17T15:32:45.639Z,23.23
2018-04-17T15:36:09.138Z,22.94
2018-04-17T15:39:32.026Z,23.14
2018-04-17T15:42:55.024Z,23.19
2018-04-17T15:46:17.918Z,23.27
2018-04-17T15:49:50.428Z,22.94
2018-04-17T15:53:14.168Z,23.93
2018-04-17T15:56:37.027Z,23.87
2018-04-17T15:59:59.984Z,23.40
2018-04-17T16:03:23.131Z,22.99
2018-04-17T16:06:46.139Z,23.67
2018-04-17T16:10:09.088Z,23.55
2018-04-17T16:13:32.550Z,23.55
2018-04-17T16:16:56.453Z,23.88
2018-04-17T16:20:20.115Z,24.58
2018-04-17T16:23:44.755Z,24.94
2018-04-17T16:27:07.629Z,23.93
2018-04-17T16:30:30.436Z,24.25
2018-04-17T16:33:54.318Z,24.57
2018-04-17T16:37:17.277Z,24.23
2018-04-17T16:40:40.191Z,24.07
2018-04-17T16:44:03.060Z,24.57
2018-04-17T16:47:25.937Z,24.60
2018-04-17T16:50:49.592Z,25.06
2018-04-17T16:54:13.305Z,24.93
2018-04-17T16:57:36.187Z,24.60
2018-04-17T17:00:59.074Z,24.65
2018-04-17T17:04:22.741Z,25.25
2018-04-17T17:07:45.628Z,25.09
2018-04-17T17:11:08.581Z,25.34
2018-04-17T17:14:32.185Z,25.39
2018-04-17T17:17:55.061Z,25.02
2018-04-17T17:21:18.692Z,26.00
2018-04-17T17:24:41.542Z,25.79
2018-04-17T17:28:04.593Z,25.77
2018-04-17T17:31:27.496Z,26.23
2018-04-17T17:34:50.335Z,27.00
2018-04-17T17:38:14.005Z,27.54
2018-04-17T17:41:37.655Z,28.18
2018-04-17T17:45:00.519Z,28.49
2018-04-17T17:48:23.502Z,29.17
2018-04-17T17:51:46.390Z,29.33
2018-04-17T17:55:13.899Z,29.57
2018-04-17T17:58:37.703Z,29.98
2018-04-17T18:02:00.652Z,30.48
2018-04-17T18:05:23.576Z,30.94
2018-04-17T18:08:46.505Z,31.07
2018-04-17T18:12:09.526Z,31.51
2018-04-17T18:15:32.421Z,31.62
2018-04-17T18:18:56.074Z,32.17
2018-04-17T18:22:19.759Z,32.64
2018-04-17T18:25:42.692Z,33.24
2018-04-17T18:29:05.561Z,34.39
2018-04-17T18:32:29.240Z,34.40
2018-04-17T18:35:53.040Z,35.44
2018-04-17T18:39:16.136Z,35.48
2018-04-17T18:42:39.527Z,35.71
2018-04-17T18:46:02.385Z,37.46
2018-04-17T18:49:26.403Z,38.49
2018-04-17T18:52:49.256Z,40.48
2018-04-17T18:56:12.171Z,40.43
2018-04-17T18:59:35.065Z,40.61
2018-04-17T19:02:58.757Z,41.43
2018-04-17T19:06:21.708Z,41.84
2018-04-17T19:09:45.364Z,42.72
2018-04-17T19:13:08.237Z,42.53
2018-04-17T19:16:31.082Z,43.60
2018-04-17T19:19:54.054Z,43.30
2018-04-17T19:23:16.951Z,44.39
2018-04-17T19:26:40.555Z,44.86
2018-04-17T19:30:03.460Z,44.99
2018-04-17T19:33:28.416Z,44.60
2018-04-17T19:36:51.355Z,45.04
2018-04-17T19:40:22.235Z,45.45
2018-04-17T19:43:49.048Z,45.75
2018-04-17T19:47:11.911Z,45.83
2018-04-17T19:50:34.756Z,46.58
2018-04-17T19:53:58.445Z,46.05
2018-04-17T19:57:21.545Z,46.25
2018-04-17T20:00:44.493Z,44.88
2018-04-17T20:04:09.179Z,45.78
2018-04-17T20:07:32.139Z,46.76
2018-04-17T20:10:55.068Z,47.07
2018-04-17T20:14:18.725Z,47.48
2018-04-17T20:17:42.388Z,47.41
2018-04-17T20:21:05.325Z,47.98
2018-04-17T20:24:28.378Z,48.87
2018-04-17T20:27:51.278Z,48.95
2018-04-17T20:31:14.941Z,48.82
2018-04-17T20:34:38.056Z,48.53
2018-04-17T20:38:02.429Z,49.16
2018-04-17T20:41:26.079Z,49.36
2018-04-17T20:44:49.791Z,49.71
2018-04-17T20:48:12.709Z,50.26
2018-04-17T20:51:35.670Z,50.26
2018-04-17T20:54:58.539Z,49.39
2018-04-17T20:58:21.485Z,49.81
2018-04-17T21:01:45.203Z,50.06
2018-04-17T21:05:08.852Z,49.08
2018-04-17T21:08:32.521Z,50.02
2018-04-17T21:11:55.409Z,49.59
2018-04-17T21:15:18.313Z,49.91
2018-04-17T21:18:41.188Z,50.54
2018-04-17T21:22:04.857Z,50.21
2018-04-17T21:25:27.898Z,49.48
2018-04-17T21:28:52.331Z,48.53
2018-04-17T21:32:16.202Z,51.57
2018-04-17T21:35:39.205Z,50.13
2018-04-17T21:39:03.609Z,50.55
2018-04-17T21:42:26.437Z,51.42
2018-04-17T21:45:50.042Z,51.42
2018-04-17T21:49:12.867Z,53.40
2018-04-17T21:52:35.708Z,52.35
2018-04-17T21:55:59.321Z,52.20
2018-04-17T21:59:22.166Z,52.11
2018-04-17T22:02:45.025Z,52.23
2018-04-17T22:06:07.955Z,52.25
2018-04-17T22:09:30.877Z,53.03
2018-04-17T22:12:53.986Z,52.37
2018-04-17T22:16:16.943Z,52.17
2018-04-17T22:19:41.318Z,53.13
2018-04-17T22:23:05.223Z,53.49
2018-04-17T22:26:28.125Z,51.52
2018-04-17T22:29:51.005Z,51.85
2018-04-17T22:33:13.938Z,52.53
2018-04-17T22:36:36.990Z,53.48
2018-04-17T22:39:59.900Z,53.04
2018-04-17T22:43:22.766Z,53.37
2018-04-17T22:46:45.655Z,54.40
2018-04-17T22:50:08.524Z,54.57
2018-04-17T22:53:31.383Z,54.80
2018-04-17T22:56:54.306Z,54.94
2018-04-17T23:00:17.157Z,54.68
2018-04-17T23:03:40.169Z,55.33
2018-04-17T23:07:03.821Z,55.38
2018-04-17T23:10:27.433Z,54.45
2018-04-17T23:13:50.348Z,53.94
2018-04-17T23:17:13.208Z,57.94
2018-04-17T23:20:36.065Z,58.80
2018-04-17T23:23:59.098Z,58.59
2018-04-17T23:27:21.903Z,59.15
2018-04-17T23:30:44.947Z,58.94
2018-04-17T23:34:07.827Z,59.13
2018-04-17T23:37:31.441Z,59.25
2018-04-17T23:40:54.313Z,59.14
2018-04-17T23:44:17.137Z,60.05
2018-04-17T23:47:39.991Z,60.03
2018-04-17T23:51:02.869Z,60.55
2018-04-17T23:54:26.473Z,60.16
2018-04-17T23:57:50.146Z,60.57
